createdAt,value
2022-09-04T00:01:26.993Z,100805.16
2022-09-04T00:04:24.734Z,100816.72
2022-09-04T00:07:36.588Z,100812.41
2022-09-04T00:10:39.683Z,100815.63
2022-09-04T00:13:44.209Z,100811.88
2022-09-04T00:16:48.239Z,100811.88
2022-09-04T00:20:06.193Z,100815.50
2022-09-04T00:23:02.683Z,100813.56
2022-09-04T00:25:57.782Z,100816.25
2022-09-04T00:28:43.735Z,100807.53
2022-09-04T00:31:56.619Z,100811.25
2022-09-04T00:35:10.754Z,100815.84
2022-09-04T00:38:23.204Z,100817.59
2022-09-04T00:41:23.152Z,100809.50
2022-09-04T00:44:42.373Z,100813.78
2022-09-04T00:47:48.857Z,100805.78
2022-09-04T00:50:44.015Z,100813.66
2022-09-04T00:53:42.498Z,100809.38
2022-09-04T00:57:21.009Z,100816.44
2022-09-04T01:00:27.934Z,100812.66
2022-09-04T01:03:30.391Z,100813.91
2022-09-04T01:06:53.169Z,100820.03
2022-09-04T01:09:54.191Z,100820.81
2022-09-04T01:12:36.832Z,100817.59
2022-09-04T01:15:57.708Z,100825.69
2022-09-04T01:19:09.125Z,100824.78
2022-09-04T01:22:17.800Z,100819.53
2022-09-04T01:25:18.884Z,100820.53
2022-09-04T01:28:26.478Z,100817.91
2022-09-04T01:31:34.138Z,100821.28
2022-09-04T01:34:46.763Z,100823.06
2022-09-04T01:37:51.726Z,100822.00
2022-09-04T01:40:46.073Z,100821.13
2022-09-04T01:43:33.153Z,100819.59
2022-09-04T01:46:28.805Z,100823.06
2022-09-04T01:49:15.766Z,100822.97
2022-09-04T01:52:30.115Z,100816.81
2022-09-04T01:56:11.024Z,100813.44
2022-09-04T01:59:07.740Z,100820.47
2022-09-04T02:02:04.764Z,100814.34
2022-09-04T02:04:54.813Z,100817.78
2022-09-04T02:07:54.882Z,100822.25
2022-09-04T02:10:47.285Z,100823.19
2022-09-04T02:14:02.318Z,100822.31
2022-09-04T02:17:03.145Z,100820.66
2022-09-04T02:19:51.561Z,100825.06
2022-09-04T02:23:01.700Z,100831.91
2022-09-04T02:25:57.771Z,100834.53
2022-09-04T02:28:44.276Z,100832.72
2022-09-04T02:31:44.045Z,100830.19
2022-09-04T02:35:01.410Z,100821.53
2022-09-04T02:38:00.769Z,100826.81
2022-09-04T02:40:57.069Z,100830.16
2022-09-04T02:44:04.994Z,100839.13
2022-09-04T02:47:08.111Z,100831.28
2022-09-04T02:50:25.094Z,100826.88
2022-09-04T02:53:35.270Z,100832.97
2022-09-04T02:56:52.260Z,100830.31
2022-09-04T03:00:00.440Z,100826.88
2022-09-04T03:03:32.875Z,100824.38
2022-09-04T03:06:21.070Z,100832.97
2022-09-04T03:09:16.361Z,100824.09
2022-09-04T03:12:04.701Z,100828.50
2022-09-04T03:15:00.799Z,100828.50
2022-09-04T03:18:06.593Z,100824.34
2022-09-04T03:21:02.264Z,100823.38
2022-09-04T03:24:01.747Z,100834.81
2022-09-04T03:26:59.795Z,100821.53
2022-09-04T03:29:58.217Z,100833.78
2022-09-04T03:33:05.591Z,100831.22
2022-09-04T03:36:03.516Z,100839.16
2022-09-04T03:39:07.014Z,100838.34
2022-09-04T03:42:40.239Z,100841.06
2022-09-04T03:46:08.519Z,100834.06
2022-09-04T03:49:09.732Z,100842.06
2022-09-04T03:52:20.801Z,100828.63
2022-09-04T03:55:52.519Z,100836.63
2022-09-04T03:59:08.668Z,100840.38
2022-09-04T04:01:53.786Z,100835.13
2022-09-04T04:05:00.824Z,100836.97
2022-09-04T04:08:03.010Z,100835.09
2022-09-04T04:11:11.396Z,100841.19
2022-09-04T04:14:29.839Z,100849.25
2022-09-04T04:17:26.385Z,100851.13
2022-09-04T04:20:32.286Z,100845.88
2022-09-04T04:23:23.932Z,100843.09
2022-09-04T04:26:46.963Z,100844.88
2022-09-04T04:29:45.891Z,100848.53
2022-09-04T04:32:44.742Z,100836.19
2022-09-04T04:35:52.243Z,100848.34
2022-09-04T04:38:35.709Z,100841.31
2022-09-04T04:42:06.006Z,100849.09
2022-09-04T04:45:14.205Z,100848.34
2022-09-04T04:48:29.520Z,100849.13
2022-09-04T04:51:49.755Z,100853.63
2022-09-04T04:54:48.831Z,100848.22
2022-09-04T04:58:00.154Z,100857.13
2022-09-04T05:01:03.268Z,100866.78
2022-09-04T05:04:01.726Z,100858.84
2022-09-04T05:07:06.877Z,100857.97
2022-09-04T05:10:14.666Z,100859.97
2022-09-04T05:13:22.944Z,100866.81
2022-09-04T05:16:22.842Z,100862.63
2022-09-04T05:19:38.897Z,100862.19
2022-09-04T05:22:51.509Z,100869.94
2022-09-04T05:25:48.534Z,100877.94
2022-09-04T05:28:42.165Z,100880.56
2022-09-04T05:31:49.210Z,100885.97
2022-09-04T05:35:03.579Z,100890.53
2022-09-04T05:38:37.892Z,100887.13
2022-09-04T05:41:57.539Z,100897.44
2022-09-04T05:45:03.882Z,100902.81
2022-09-04T05:48:02.801Z,100903.78
2022-09-04T05:51:08.621Z,100894.88
2022-09-04T05:54:22.830Z,100903.53
2022-09-04T05:57:30.880Z,100905.09
2022-09-04T06:00:20.550Z,100909.38
2022-09-04T06:03:20.345Z,100917.25
2022-09-04T06:06:26.125Z,100917.75
2022-09-04T06:09:43.880Z,100916.00
2022-09-04T06:12:34.817Z,100917.31
2022-09-04T06:15:44.785Z,100925.81
2022-09-04T06:18:52.665Z,100929.53
2022-09-04T06:22:06.989Z,100931.50
2022-09-04T06:24:54.881Z,100938.56
2022-09-04T06:27:55.701Z,100935.03
2022-09-04T06:30:50.047Z,100943.09
2022-09-04T06:34:19.133Z,100942.69
2022-09-04T06:37:40.708Z,100947.63
2022-09-04T06:40:54.427Z,100950.63
2022-09-04T06:44:03.794Z,100953.78
2022-09-04T06:47:00.065Z,100949.91
2022-09-04T06:50:22.951Z,100962.66
2022-09-04T06:53:46.766Z,100959.72
2022-09-04T06:56:46.181Z,100951.59
2022-09-04T06:59:45.309Z,100960.44
2022-09-04T07:02:43.889Z,100954.63
2022-09-04T07:05:50.486Z,100963.94
2022-09-04T07:08:58.823Z,100975.38
2022-09-04T07:11:53.056Z,100965.31
2022-09-04T07:15:14.589Z,100967.66
2022-09-04T07:18:34.521Z,100971.56
2022-09-04T07:21:33.799Z,100968.22
2022-09-04T07:24:39.315Z,100967.94
2022-09-04T07:28:02.821Z,100969.94
2022-09-04T07:30:52.339Z,100979.34
2022-09-04T07:34:01.629Z,100984.06
2022-09-04T07:37:07.073Z,100991.38
2022-09-04T07:40:08.194Z,100984.53
2022-09-04T07:43:18.987Z,100996.56
2022-09-04T07:46:21.050Z,100992.03
2022-09-04T07:49:38.167Z,100982.06
2022-09-04T07:53:02.563Z,100995.47
2022-09-04T07:56:26.255Z,100994.94
2022-09-04T08:00:14.702Z,100992.41
2022-09-04T08:03:14.038Z,100998.28
2022-09-04T08:06:29.928Z,100995.03
2022-09-04T08:09:23.299Z,101009.25
2022-09-04T08:12:16.924Z,101005.13
2022-09-04T08:15:03.437Z,101015.25
2022-09-04T08:18:16.278Z,101006.47
2022-09-04T08:21:18.867Z,101003.00
2022-09-04T08:24:21.330Z,101001.00
2022-09-04T08:27:27.138Z,101012.19
2022-09-04T08:30:17.386Z,101014.09
2022-09-04T08:33:32.296Z,101008.66
2022-09-04T08:36:36.016Z,101006.97
2022-09-04T08:39:27.046Z,101003.81
2022-09-04T08:42:45.892Z,101011.41
2022-09-04T08:45:56.815Z,101005.09
2022-09-04T08:49:11.596Z,101023.44
2022-09-04T08:52:29.022Z,101020.94
2022-09-04T08:55:23.896Z,101022.22
2022-09-04T08:58:55.465Z,101032.44
2022-09-04T09:01:45.260Z,101021.47
2022-09-04T09:05:00.133Z,101020.09
2022-09-04T09:08:09.473Z,101024.53
2022-09-04T09:11:02.144Z,101026.13
2022-09-04T09:14:18.003Z,101027.97
2022-09-04T09:17:34.535Z,101032.28
2022-09-04T09:20:39.942Z,101039.66
2022-09-04T09:24:01.207Z,101041.59
2022-09-04T09:27:17.946Z,101062.44
2022-09-04T09:30:19.367Z,101051.78
2022-09-04T09:33:48.388Z,101046.19
2022-09-04T09:37:04.180Z,101041.34
2022-09-04T09:40:26.938Z,101041.63
2022-09-04T09:43:59.903Z,101048.56
2022-09-04T09:47:27.354Z,101047.94
2022-09-04T09:50:15.140Z,101039.81
2022-09-04T09:53:47.201Z,101037.56
2022-09-04T09:56:55.690Z,101037.59
2022-09-04T10:00:14.984Z,101036.19
2022-09-04T10:03:33.304Z,101035.19
2022-09-04T10:06:43.195Z,101042.94
2022-09-04T10:09:55.103Z,101030.50
2022-09-04T10:13:08.608Z,101027.38
2022-09-04T10:16:08.188Z,101024.59
2022-09-04T10:19:05.475Z,101020.50
2022-09-04T10:22:21.065Z,101031.91
2022-09-04T10:25:49.465Z,101023.72
2022-09-04T10:28:49.349Z,101025.47
2022-09-04T10:32:08.006Z,101028.38
2022-09-04T10:35:28.350Z,101018.81
2022-09-04T10:38:39.745Z,101017.00
2022-09-04T10:41:52.637Z,101018.03
2022-09-04T10:44:58.359Z,100998.50
2022-09-04T10:47:58.853Z,101006.03
2022-09-04T10:51:20.304Z,101005.94
2022-09-04T10:54:26.490Z,101000.50
2022-09-04T10:57:35.350Z,100999.53
2022-09-04T11:00:28.949Z,101009.75
2022-09-04T11:03:29.315Z,100999.44
2022-09-04T11:06:53.813Z,100993.63
2022-09-04T11:10:11.655Z,100990.50
2022-09-04T11:13:34.753Z,100988.13
2022-09-04T11:16:57.420Z,100991.69
2022-09-04T11:20:01.967Z,100991.72
2022-09-04T11:23:43.682Z,100988.50
2022-09-04T11:26:38.425Z,100989.28
2022-09-04T11:29:42.172Z,100994.28
2022-09-04T11:32:49.019Z,100990.94
2022-09-04T11:36:08.958Z,100997.25
2022-09-04T11:39:06.468Z,100991.94
2022-09-04T11:42:08.484Z,100984.13
2022-09-04T11:45:12.082Z,100982.38
2022-09-04T11:48:49.934Z,100971.19
2022-09-04T11:52:01.297Z,100991.16
2022-09-04T11:55:49.406Z,100981.84
2022-09-04T12:02:55.724Z,100976.28
2022-09-04T12:06:04.138Z,100970.19
2022-09-04T12:09:42.829Z,100974.94
2022-09-04T12:13:15.063Z,100969.16
2022-09-04T12:17:07.212Z,100962.56
2022-09-04T12:20:29.303Z,100957.97
2022-09-04T12:23:43.023Z,100960.59
2022-09-04T12:26:51.377Z,100950.78
2022-09-04T12:33:27.306Z,100948.22
2022-09-04T12:36:57.668Z,100942.13
2022-09-04T12:39:49.383Z,100935.41
2022-09-04T12:42:53.190Z,100944.84
2022-09-04T12:45:59.744Z,100941.06
2022-09-04T12:49:25.655Z,100952.16
2022-09-04T12:53:06.330Z,100938.59
2022-09-04T12:56:20.019Z,100937.88
2022-09-04T12:59:38.981Z,100939.00
2022-09-04T13:03:05.920Z,100943.75
2022-09-04T13:06:18.975Z,100929.34
2022-09-04T13:09:13.762Z,100924.84
2022-09-04T13:12:34.628Z,100920.63
2022-09-04T13:15:48.845Z,100925.16
2022-09-04T13:19:01.391Z,100933.28
2022-09-04T13:22:33.522Z,100922.53
2022-09-04T13:26:07.013Z,100915.50
2022-09-04T13:29:12.527Z,100919.31
2022-09-04T13:32:50.274Z,100917.31
2022-09-04T13:36:11.087Z,100916.28
2022-09-04T13:39:45.244Z,100906.97
2022-09-04T13:43:36.158Z,100908.47
2022-09-04T13:46:52.311Z,100896.34
2022-09-04T13:50:01.298Z,100905.16
2022-09-04T13:53:17.843Z,100906.09
2022-09-04T13:56:07.090Z,100906.25
2022-09-04T13:59:02.367Z,100899.63
2022-09-04T14:01:58.669Z,100904.78
2022-09-04T14:04:58.053Z,100894.66
2022-09-04T14:07:47.238Z,100887.44
2022-09-04T14:11:10.135Z,100888.81
2022-09-04T14:14:38.398Z,100882.94
2022-09-04T14:17:40.634Z,100882.66
2022-09-04T14:20:37.314Z,100884.94
2022-09-04T14:23:47.955Z,100883.88
2022-09-04T14:26:44.503Z,100878.88
2022-09-04T14:30:11.706Z,100881.81
2022-09-04T14:33:05.004Z,100881.03
2022-09-04T14:37:01.920Z,100877.06
2022-09-04T14:40:04.164Z,100882.41
2022-09-04T14:43:15.944Z,100875.84
2022-09-04T14:46:34.510Z,100878.59
2022-09-04T14:49:26.607Z,100868.34
2022-09-04T14:52:35.420Z,100869.56
2022-09-04T14:56:17.258Z,100863.13
2022-09-04T14:59:57.350Z,100858.31
2022-09-04T15:03:02.918Z,100863.44
2022-09-04T15:06:13.347Z,100855.78
2022-09-04T15:09:00.123Z,100849.16
2022-09-04T15:12:26.519Z,100836.34
2022-09-04T15:15:47.351Z,100835.09
2022-09-04T15:18:54.287Z,100830.09
2022-09-04T15:21:59.305Z,100827.63
2022-09-04T15:25:02.449Z,100829.47
2022-09-04T15:28:33.104Z,100826.53
2022-09-04T15:34:32.273Z,100815.34
2022-09-04T15:37:34.516Z,100813.94
2022-09-04T15:40:20.245Z,100814.63
2022-09-04T15:43:27.232Z,100804.31
2022-09-04T15:46:59.876Z,100801.06
2022-09-04T15:50:16.809Z,100799.84
2022-09-04T15:53:37.129Z,100802.22
2022-09-04T15:56:54.532Z,100793.03
2022-09-04T16:00:24.884Z,100790.44
2022-09-04T16:03:36.794Z,100788.25
2022-09-04T16:06:45.953Z,100790.94
2022-09-04T16:10:00.518Z,100791.63
2022-09-04T16:13:00.723Z,100781.06
2022-09-04T16:16:39.505Z,100787.06
2022-09-04T16:19:44.583Z,100784.13
2022-09-04T16:23:17.385Z,100780.31
2022-09-04T16:26:23.602Z,100773.75
2022-09-04T16:29:28.610Z,100775.91
2022-09-04T16:32:43.105Z,100773.41
2022-09-04T16:35:58.294Z,100781.34
2022-09-04T16:39:31.630Z,100776.66
2022-09-04T16:42:33.156Z,100770.44
2022-09-04T16:45:56.157Z,100764.22
2022-09-04T16:49:08.037Z,100776.75
2022-09-04T16:55:14.227Z,100783.94
2022-09-04T16:58:16.378Z,100778.34
2022-09-04T17:01:51.233Z,100776.50
2022-09-04T17:04:48.781Z,100780.16
2022-09-04T17:07:47.712Z,100771.22
2022-09-04T17:10:39.576Z,100772.09
2022-09-04T17:14:16.597Z,100766.03
2022-09-04T17:17:30.550Z,100764.69
2022-09-04T17:23:47.090Z,100757.00
2022-09-04T17:29:14.377Z,100759.34
2022-09-04T17:29:14.872Z,100752.72
2022-09-04T17:30:53.467Z,100751.38
2022-09-04T17:40:32.144Z,100754.56
2022-09-04T17:40:51.890Z,100755.16
2022-09-04T17:41:36.137Z,100754.63
2022-09-04T17:44:59.327Z,100760.59
2022-09-04T17:47:51.383Z,100759.91
2022-09-04T17:50:35.740Z,100763.44
2022-09-04T17:53:42.428Z,100768.16
2022-09-04T17:56:50.239Z,100774.06
2022-09-04T17:59:51.040Z,100768.84
2022-09-04T18:03:11.672Z,100769.84
2022-09-04T18:06:30.102Z,100776.31
2022-09-04T18:09:51.662Z,100780.50
2022-09-04T18:12:44.997Z,100778.88
2022-09-04T18:15:42.074Z,100781.00
2022-09-04T18:19:07.857Z,100787.59
2022-09-04T18:22:26.043Z,100782.84
2022-09-04T18:25:30.269Z,100792.59
2022-09-04T18:28:22.067Z,100800.78
2022-09-04T18:37:06.526Z,100799.41
2022-09-04T18:37:17.225Z,100809.50
2022-09-04T18:38:07.893Z,100824.63
2022-09-04T18:44:19.419Z,100822.75
2022-09-04T18:50:23.721Z,100829.34
2022-09-04T18:50:35.289Z,100836.59
2022-09-04T18:51:20.619Z,100839.47
2022-09-04T18:54:34.031Z,100848.56
2022-09-04T18:57:55.493Z,100847.91
2022-09-04T19:00:59.168Z,100864.13
2022-09-04T19:04:02.318Z,100870.06
2022-09-04T19:07:31.251Z,100859.25
2022-09-04T19:10:40.533Z,100872.25
2022-09-04T19:14:10.288Z,100888.34
2022-09-04T19:17:53.996Z,100882.44
2022-09-04T19:20:58.383Z,100888.97
2022-09-04T19:23:47.377Z,100892.63
2022-09-04T19:27:01.902Z,100899.63
2022-09-04T19:33:53.144Z,100914.94
2022-09-04T19:38:28.954Z,100926.66
2022-09-04T19:46:01.660Z,100937.09
2022-09-04T19:46:15.052Z,100949.59
2022-09-04T19:47:12.357Z,100951.47
2022-09-04T19:53:22.449Z,100959.88
2022-09-04T19:54:13.432Z,100966.63
2022-09-04T19:57:32.461Z,100964.31
2022-09-04T20:00:43.391Z,100965.13
2022-09-04T20:03:32.519Z,100971.56
2022-09-04T20:06:24.213Z,100970.50
2022-09-04T20:09:14.653Z,100967.47
2022-09-04T20:12:34.425Z,100974.03
2022-09-04T20:15:28.341Z,100977.81
2022-09-04T20:18:28.359Z,100985.19
2022-09-04T20:21:14.661Z,100982.97
2022-09-04T20:24:17.411Z,100990.88
2022-09-04T20:27:31.314Z,100996.53
2022-09-04T20:30:25.612Z,101008.03
2022-09-04T20:33:30.313Z,101011.88
2022-09-04T20:36:22.433Z,101010.25
2022-09-04T20:39:18.309Z,101017.69
2022-09-04T20:42:24.439Z,101022.72
2022-09-04T20:51:00.454Z,101030.28
2022-09-04T20:52:49.300Z,101026.13
2022-09-04T20:52:57.782Z,101034.59
2022-09-04T20:55:54.853Z,101028.63
2022-09-04T21:03:14.204Z,101033.22
2022-09-04T21:03:18.786Z,101030.97
2022-09-04T21:05:07.821Z,101035.56
2022-09-04T21:08:03.714Z,101036.44
2022-09-04T21:10:52.399Z,101041.75
2022-09-04T21:13:49.416Z,101041.28
2022-09-04T21:16:52.366Z,101047.38
2022-09-04T21:20:01.077Z,101053.59
2022-09-04T21:23:05.382Z,101046.28
2022-09-04T21:26:14.810Z,101052.78
2022-09-04T21:29:10.923Z,101060.78
2022-09-04T21:32:19.090Z,101066.28
2022-09-04T21:35:10.812Z,101071.41
2022-09-04T21:38:26.472Z,101071.50
2022-09-04T21:41:32.333Z,101075.16
2022-09-04T21:45:01.391Z,101078.38
2022-09-04T21:48:25.952Z,101086.69
2022-09-04T21:51:28.630Z,101088.63
2022-09-04T21:54:38.295Z,101089.50
2022-09-04T21:57:57.826Z,101098.63
2022-09-04T22:02:44.248Z,101088.78
2022-09-04T22:05:01.185Z,101097.03
2022-09-04T22:11:50.242Z,101099.69
2022-09-04T22:13:38.966Z,101103.94
2022-09-04T22:14:38.400Z,101111.91
2022-09-04T22:17:34.505Z,101122.72
2022-09-04T22:20:33.145Z,101122.84
2022-09-04T22:23:56.215Z,101125.84
2022-09-04T22:26:56.325Z,101127.63
2022-09-04T22:30:14.485Z,101121.56
2022-09-04T22:33:21.391Z,101126.19
2022-09-04T22:36:42.107Z,101129.84
2022-09-04T22:39:54.640Z,101128.25
2022-09-04T22:42:53.490Z,101127.53
2022-09-04T22:46:16.366Z,101124.19
2022-09-04T22:49:15.513Z,101114.50
2022-09-04T22:52:11.542Z,101119.03
2022-09-04T22:55:22.993Z,101112.91
2022-09-04T22:58:32.509Z,101122.72
2022-09-04T23:01:48.391Z,101118.06
2022-09-04T23:04:51.467Z,101104.84
2022-09-04T23:13:53.291Z,101098.72
2022-09-04T23:14:00.385Z,101097.81
2022-09-04T23:15:07.963Z,101090.84
2022-09-04T23:20:42.443Z,101080.09
2022-09-04T23:26:48.001Z,101086.31
2022-09-04T23:26:52.827Z,101082.53
2022-09-04T23:29:12.772Z,101067.34
2022-09-04T23:32:10.053Z,101072.00
2022-09-04T23:35:22.520Z,101061.91
2022-09-04T23:38:41.791Z,101056.13
2022-09-04T23:41:56.964Z,101065.25
2022-09-04T23:45:09.627Z,101051.59
2022-09-04T23:48:03.416Z,101053.38
2022-09-04T23:51:00.436Z,101049.97
2022-09-04T23:54:25.055Z,101049.09
2022-09-04T23:57:32.011Z,101043.69
